Observations for VALLEY RAF, United Kingdom (EGOV)

EGOV 221350Z 29010KT 9999 FEW023 SCT300 12/07 Q1039 BLU NOSIG   
EGOV 221250Z 30009KT 9999 FEW024 12/07 Q1040 BLU NOSIG  
EGOV 221150Z 30010KT 9999 FEW023 13/07 Q1040 BLU NOSIG  
EGOV 221050Z 32011KT 9999 FEW028 12/05 Q1040 BLU NOSIG  
EGOV 220950Z 32008KT 9999 FEW028 12/06 Q1040 BLU NOSIG  
EGOV 220850Z 32008KT 9999 FEW030 11/06 Q1040 BLU NOSIG  
EGOV 220750Z 35007KT 9999 FEW032 10/05 Q1039 BLU NOSIG  
EGOV 220650Z 35007KT 9999 FEW030 09/04 Q1039 BLU NOSIG  
EGOV 220550Z 34009KT 9999 FEW032 10/04 Q1038 BLU NOSIG  
EGOV 220450Z AUTO 35010KT 9999 NCD 09/04 Q1037  
EGOV 220350Z AUTO 33012KT 9999 FEW030/// 10/03 Q1037
EGOV 220250Z AUTO 32009KT 9999 FEW026/// BKN035/// 10/06 Q1036  
EGOV 220150Z AUTO 32007KT 9999 SCT030/// BKN039/// 10/06 Q1036  
EGOV 220050Z AUTO 32010KT 9999 SCT036/// 10/05 Q1036
EGOV 212350Z AUTO 33008KT 9999 FEW037/// 10/04 Q1035
EGOV 212250Z AUTO 33009KT 9999 SCT038/// 10/04 Q1035
EGOV 212150Z AUTO 35011KT 9999 BKN035/// 11/05 Q1034
EGOV 212050Z AUTO 35010KT 9999 BKN040/// 11/05 Q1033
EGOV 211950Z AUTO 34013KT 9999 FEW042/// 11/05 Q1033
EGOV 211850Z AUTO 34014KT 9999 BKN044/// 12/06 Q1032
EGOV 211750Z AUTO 31008KT 9999 BKN040/// 12/09 Q1031
EGOV 211650Z AUTO 32007KT 9999 FEW020/// 12/09 Q1030
EGOV 211550Z AUTO 32012KT 9999 FEW019/// 13/09 Q1029
EGOV 211450Z AUTO 33009KT 9999 SCT016/// BKN050/// 13/11 Q1029  
EGOV 211350Z AUTO 34011KT 9999 BKN043/// 13/11 Q1028